^^
Grace C. Lehan Memorial Weather Station Historical Data
Daily Summary for February 24, 2021 Units:  English    Metric   Both
Daily Weekly Monthly Yearly
  High: Low: Average:
Temperature: 45.4 °F 26.1 °F 33.7 °F
Dew Point: 20.6 °F 12.2 °F 17.2 °F
Humidity: 66.8% 26.1% 53%
Wind Speed: 9.1mph 0mph 2.9mph
Wind Gust: 19mph - -
Wind- - NW
Pressure: 30.29 in 30.10 in -
Precipitation: 0.00 in    
 
 
Tabular Data for February 24, 2021
Time Temperature Dew Point Pressure Wind Wind Speed Wind Gust Humidity Rainfall Rate (Hourly) solar
00:04 29.7 °F 19.4 °F 30.10 in NW 3.6 mph 13 mph 65% 0.00 in 0 W/m2
00:09 29.7 °F 19.4 °F 30.10 in NW 4.9 mph 12 mph 65% 0.00 in 0 W/m2
00:14 29.7 °F 19.3 °F 30.10 in NW 4.1 mph 12 mph 64.7% 0.00 in 0 W/m2
00:19 29.7 °F 19.1 °F 30.10 in WNW 2.1 mph 12 mph 64.2% 0.00 in 0 W/m2
00:24 29.7 °F 19.1 °F 30.10 in NW 2.8 mph 12 mph 64.2% 0.00 in 0 W/m2
00:29 29.6 °F 18.9 °F 30.10 in WNW 4.6 mph 12 mph 64% 0.00 in 0 W/m2
00:34 29.6 °F 18.9 °F 30.10 in WNW 3.2 mph 12 mph 64% 0.00 in 0 W/m2
00:39 29.6 °F 18.9 °F 30.10 in NW 4.4 mph 10 mph 64% 0.00 in 0 W/m2
00:44 29.6 °F 18.9 °F 30.10 in NW 5.4 mph 13 mph 64% 0.00 in 0 W/m2
00:49 29.6 °F 18.8 °F 30.10 in NNW 4.1 mph 13 mph 63.5% 0.00 in 0 W/m2
00:54 29.6 °F 18.8 °F 30.11 in West 1.4 mph 13 mph 63.6% 0.00 in 0 W/m2
00:59 29.5 °F 18.7 °F 30.11 in NW 3.1 mph 13 mph 63.6% 0.00 in 0 W/m2
01:04 29.5 °F 18.8 °F 30.11 in NW 1 mph 13 mph 63.9% 0.00 in 0 W/m2
01:09 29.4 °F 18.7 °F 30.11 in NNW 1.5 mph 4 mph 64% 0.00 in 0 W/m2
01:14 29.3 °F 18.7 °F 30.11 in NNW 1.8 mph 7 mph 64.1% 0.00 in 0 W/m2
01:19 29.2 °F 18.7 °F 30.11 in NW 4.6 mph 11 mph 64.5% 0.00 in 0 W/m2
01:24 29.1 °F 18.5 °F 30.12 in NW 3.5 mph 11 mph 64% 0.00 in 0 W/m2
01:29 29.1 °F 18.5 °F 30.12 in NW 1.8 mph 11 mph 64% 0.00 in 0 W/m2
01:34 29.1 °F 18.5 °F 30.12 in NW 2 mph 11 mph 64% 0.00 in 0 W/m2
01:39 29.1 °F 18.4 °F 30.12 in NW 1.2 mph 9 mph 64% 0.00 in 0 W/m2
01:44 29 °F 18.4 °F 30.13 in NW 2.6 mph 9 mph 64% 0.00 in 0 W/m2
01:49 28.9 °F 18.3 °F 30.13 in NW 0.8 mph 9 mph 64% 0.00 in 0 W/m2
01:54 28.8 °F 18.2 °F 30.13 in NW 1.7 mph 9 mph 64% 0.00 in 0 W/m2
01:59 28.7 °F 18.1 °F 30.13 in NW 4 mph 10 mph 64% 0.00 in 0 W/m2
02:04 28.7 °F 18.1 °F 30.13 in NW 0.4 mph 10 mph 64% 0.00 in 0 W/m2
02:09 28.7 °F 18.1 °F 30.13 in NW 1 mph 4 mph 64% 0.00 in 0 W/m2
02:14 28.6 °F 18 °F 30.14 in NW 1.9 mph 8 mph 64% 0.00 in 0 W/m2
02:19 28.5 °F 17.9 °F 30.14 in NNW 2.3 mph 9 mph 64% 0.00 in 0 W/m2
02:24 28.5 °F 17.9 °F 30.14 in NW 1.3 mph 9 mph 64% 0.00 in 0 W/m2
02:29 28.4 °F 17.8 °F 30.14 in NW 1.4 mph 9 mph 64% 0.00 in 0 W/m2
02:34 28.3 °F 17.7 °F 30.14 in NW 2.9 mph 9 mph 64% 0.00 in 0 W/m2
02:39 28.3 °F 17.6 °F 30.15 in WNW 1.2 mph 9 mph 63.7% 0.00 in 0 W/m2
02:44 28.3 °F 17.5 °F 30.15 in NW 4.3 mph 11 mph 63.4% 0.00 in 0 W/m2
02:49 28.3 °F 17.3 °F 30.15 in NW 2.7 mph 11 mph 63% 0.00 in 0 W/m2
02:54 28.3 °F 17.3 °F 30.15 in WNW 3.6 mph 11 mph 63% 0.00 in 0 W/m2
02:59 28.3 °F 17.1 °F 30.15 in WNW 2.4 mph 11 mph 62.4% 0.00 in 0 W/m2
03:04 28.2 °F 16.9 °F 30.15 in WNW 5.5 mph 14 mph 62.2% 0.00 in 0 W/m2
03:09 28.3 °F 16.9 °F 30.15 in NW 5.2 mph 14 mph 62% 0.00 in 0 W/m2
03:14 28.3 °F 16.6 °F 30.15 in WNW 3.2 mph 14 mph 61.1% 0.00 in 0 W/m2
03:19 28.3 °F 16.6 °F 30.16 in NW 2 mph 14 mph 61% 0.00 in 0 W/m2
03:24 28.3 °F 16.8 °F 30.15 in NW 2.9 mph 14 mph 61.7% 0.00 in 0 W/m2
03:29 28.2 °F 16.6 °F 30.16 in NW 4.1 mph 14 mph 61.4% 0.00 in 0 W/m2
03:34 28.2 °F 16.5 °F 30.16 in NNW 1.5 mph 14 mph 61% 0.00 in 0 W/m2
03:39 28.1 °F 16.4 °F 30.16 in NNW 1.9 mph 6 mph 61% 0.00 in 0 W/m2
03:44 28.1 °F 16.4 °F 30.16 in NNW 2.2 mph 9 mph 61% 0.00 in 0 W/m2
03:49 28.1 °F 16.4 °F 30.17 in NW 4.3 mph 11 mph 61% 0.00 in 0 W/m2
03:54 28.1 °F 16.4 °F 30.17 in WNW 3.6 mph 11 mph 61% 0.00 in 0 W/m2
03:59 28.1 °F 16.4 °F 30.17 in WNW 2 mph 11 mph 61% 0.00 in 0 W/m2
04:00 28.1 °F 16.4 °F 30.17 in NW 1 mph 11 mph 61% 0.00 in 0 W/m2
04:09 28 °F 16.3 °F 30.17 in NW 1 mph 5 mph 61% 0.00 in 0 W/m2
04:14 27.9 °F 16.2 °F 30.18 in NW 0.7 mph 5 mph 61% 0.00 in 0 W/m2
04:19 27.8 °F 16.3 °F 30.18 in NW 0.4 mph 5 mph 61.4% 0.00 in 0 W/m2
04:24 27.7 °F 16.4 °F 30.18 in NW 0.5 mph 5 mph 62% 0.00 in 0 W/m2
04:29 27.6 °F 16.3 °F 30.18 in NW 0.6 mph 5 mph 62% 0.00 in 0 W/m2
04:34 27.5 °F 16.2 °F 30.18 in NW 1.6 mph 7 mph 62% 0.00 in 0 W/m2
04:39 27.4 °F 16.3 °F 30.18 in NW 0.4 mph 7 mph 62.6% 0.00 in 0 W/m2
04:44 27.3 °F 16.4 °F 30.18 in NW 0.1 mph 7 mph 63% 0.00 in 0 W/m2
04:49 27.2 °F 16.3 °F 30.19 in NW 0.2 mph 7 mph 63% 0.00 in 0 W/m2
04:54 27.1 °F 16.2 °F 30.19 in Calm   7 mph 63.3% 0.00 in 0 W/m2
04:59 26.9 °F 16.1 °F 30.20 in Calm   7 mph 63.2% 0.00 in 0 W/m2
05:04 26.8 °F 16.3 °F 30.20 in NW 0.1 mph 7 mph 64% 0.00 in 0 W/m2
05:09 26.7 °F 16.3 °F 30.21 in Calm   1 mph 64.3% 0.00 in 0 W/m2
05:14 26.6 °F 16.7 °F 30.21 in Calm   1 mph 65.8% 0.00 in 0 W/m2
05:19 26.4 °F 16.6 °F 30.21 in Calm   1 mph 66% 0.00 in 0 W/m2
05:24 26.3 °F 16.5 °F 30.22 in NW 0.4 mph 2 mph 66% 0.00 in 0 W/m2
05:29 26.2 °F 16.4 °F 30.22 in NW 0.1 mph 2 mph 66% 0.00 in 0 W/m2
05:34 26.1 °F 16.3 °F 30.23 in NW 1.3 mph 4 mph 66% 0.00 in 0 W/m2
05:39 26.1 °F 16.5 °F 30.23 in NW 2.2 mph 6 mph 66.5% 0.00 in 0 W/m2
05:44 26.2 °F 16.7 °F 30.23 in WNW 3.6 mph 11 mph 66.8% 0.00 in 0 W/m2
05:49 26.5 °F 16.7 °F 30.23 in WNW 3.1 mph 11 mph 65.9% 0.00 in 0 W/m2
05:54 26.8 °F 16.6 °F 30.23 in NW 2.2 mph 11 mph 65% 0.00 in 0 W/m2
05:59 27 °F 16.8 °F 30.24 in NW 0.7 mph 11 mph 65% 0.00 in 0 W/m2
06:04 27 °F 16.9 °F 30.24 in NW 1.1 mph 11 mph 65% 0.00 in 0 W/m2
06:09 27.1 °F 16.9 °F 30.24 in NW 2.8 mph 11 mph 65% 0.00 in 0 W/m2
06:14 27.3 °F 17.1 °F 30.24 in NW 1 mph 11 mph 65% 0.00 in 0 W/m2
06:19 27.3 °F 16.9 °F 30.25 in NW 0.7 mph 11 mph 64.5% 0.00 in 0 W/m2
06:24 27.3 °F 17.1 °F 30.25 in NW 1.1 mph 11 mph 65% 0.00 in 0 W/m2
06:29 27.3 °F 17.1 °F 30.25 in NW 2.2 mph 11 mph 65% 0.00 in 0 W/m2
06:34 27.3 °F 17.1 °F 30.25 in NNW 1.6 mph 11 mph 65% 0.00 in 0 W/m2
06:39 27.4 °F 17.2 °F 30.25 in NW 2.8 mph 7 mph 65% 0.00 in 0 W/m2
06:44 27.4 °F 17.2 °F 30.25 in NW 2.7 mph 7 mph 65% 0.00 in 0 W/m2
06:49 27.5 °F 17 °F 30.26 in NW 1 mph 7 mph 64.3% 0.00 in 0 W/m2
06:54 27.5 °F 16.9 °F 30.26 in NNW 1.5 mph 9 mph 64% 0.00 in 5 W/m2
06:59 27.6 °F 17 °F 30.26 in North 1.9 mph 9 mph 64% 0.00 in 11 W/m2
07:04 27.7 °F 17.1 °F 30.26 in North 1.1 mph 9 mph 64% 0.00 in 12 W/m2
07:09 27.8 °F 17.2 °F 30.26 in Calm   3 mph 64% 0.00 in 14 W/m2
07:14 27.8 °F 17.2 °F 30.26 in North 0.2 mph 3 mph 64% 0.00 in 16 W/m2
07:19 27.8 °F 17.2 °F 30.27 in North 0.2 mph 3 mph 64% 0.00 in 19 W/m2
07:24 27.8 °F 17.2 °F 30.27 in North 0.7 mph 4 mph 64% 0.00 in 33 W/m2
07:29 28 °F 17.4 °F 30.27 in North 0.2 mph 4 mph 64% 0.00 in 42 W/m2
07:34 28.3 °F 17.8 °F 30.27 in North 0.8 mph 4 mph 64.4% 0.00 in 47 W/m2
07:39 28.7 °F 18 °F 30.27 in NNW 1.2 mph 7 mph 63.9% 0.00 in 105 W/m2
07:44 29.2 °F 18.2 °F 30.27 in NW 1.5 mph 7 mph 62.9% 0.00 in 100 W/m2
07:49 29.9 °F 18.4 °F 30.27 in NW 0.3 mph 7 mph 61.8% 0.00 in 46 W/m2
07:54 30.6 °F 18.8 °F 30.27 in NNW 1.2 mph 7 mph 61.2% 0.00 in 56 W/m2
07:59 31 °F 18.7 °F 30.28 in NNW 0.8 mph 7 mph 59.8% 0.00 in 146 W/m2
08:00 31.2 °F 18.6 °F 30.27 in Calm   7 mph 59% 0.00 in 146 W/m2
08:09 32 °F 19.1 °F 30.28 in NNW 2.4 mph 6 mph 58.5% 0.00 in 199 W/m2
08:14 32.6 °F 19.2 °F 30.28 in NNW 3.3 mph 9 mph 57.3% 0.00 in 232 W/m2
08:19 33.3 °F 19.4 °F 30.28 in NNW 3.4 mph 10 mph 56.2% 0.00 in 244 W/m2
08:24 33.8 °F 19.4 °F 30.28 in NW 3.3 mph 12 mph 55.1% 0.00 in 248 W/m2
08:29 34.3 °F 19.4 °F 30.28 in NW 2.8 mph 12 mph 54% 0.00 in 265 W/m2
08:34 34.8 °F 19.8 °F 30.28 in NW 2.2 mph 12 mph 54% 0.00 in 269 W/m2
08:39 35.3 °F 19.8 °F 30.28 in NW 1.9 mph 9 mph 52.8% 0.00 in 276 W/m2
08:44 35.6 °F 19.6 °F 30.28 in NW 2.8 mph 9 mph 51.7% 0.00 in 288 W/m2
08:49 35.7 °F 19.3 °F 30.28 in NW 4.2 mph 9 mph 51% 0.00 in 278 W/m2
08:54 35.5 °F 19.2 °F 30.28 in NW 4.6 mph 11 mph 51% 0.00 in 214 W/m2
08:59 35.2 °F 19.1 °F 30.28 in NNW 1.3 mph 11 mph 51.4% 0.00 in 141 W/m2
09:04 35.2 °F 19.3 °F 30.29 in NW 1.9 mph 11 mph 52% 0.00 in 211 W/m2
09:09 35.1 °F 19.2 °F 30.29 in NW 2 mph 7 mph 52% 0.00 in 211 W/m2
09:14 34.9 °F 19 °F 30.29 in WNW 3 mph 9 mph 51.9% 0.00 in 167 W/m2
09:19 34.8 °F 19 °F 30.28 in NW 1.9 mph 9 mph 52% 0.00 in 181 W/m2
09:24 35 °F 19.1 °F 30.28 in NW 1.2 mph 9 mph 52% 0.00 in 214 W/m2
09:29 35.2 °F 19.2 °F 30.29 in NW 2.1 mph 9 mph 51.7% 0.00 in 139 W/m2
09:34 35.3 °F 19 °F 30.28 in WNW 3.2 mph 11 mph 51% 0.00 in 142 W/m2
09:39 35.3 °F 18.8 °F 30.29 in NW 3 mph 11 mph 50.7% 0.00 in 139 W/m2
09:44 35.2 °F 18.9 °F 30.28 in WNW 2.5 mph 11 mph 51% 0.00 in 156 W/m2
09:49 35.3 °F 19 °F 30.29 in WNW 2.3 mph 11 mph 51% 0.00 in 135 W/m2
09:54 35.4 °F 19.1 °F 30.29 in WNW 3.7 mph 11 mph 51% 0.00 in 218 W/m2
09:59 35.7 °F 19 °F 30.29 in WNW 4.2 mph 11 mph 50.3% 0.00 in 339 W/m2
10:04 36.2 °F 19.1 °F 30.29 in WNW 3.5 mph 11 mph 49.5% 0.00 in 364 W/m2
10:09 37 °F 19.6 °F 30.29 in WNW 2.6 mph 9 mph 49% 0.00 in 362 W/m2
10:14 37.8 °F 20.1 °F 30.29 in NW 2.2 mph 9 mph 48.5% 0.00 in 469 W/m2
10:19 38.9 °F 20.6 °F 30.28 in WNW 1.8 mph 9 mph 47.3% 0.00 in 478 W/m2
10:24 39.8 °F 20.3 °F 30.28 in WNW 4.1 mph 11 mph 45.1% 0.00 in 483 W/m2
10:29 40.3 °F 19.4 °F 30.28 in WNW 4.5 mph 11 mph 42.7% 0.00 in 490 W/m2
10:34 40.4 °F 19.5 °F 30.28 in NW 3.9 mph 12 mph 42.7% 0.00 in 473 W/m2
10:39 40.5 °F 19.3 °F 30.28 in WNW 6.5 mph 14 mph 42.2% 0.00 in 480 W/m2
10:44 40.3 °F 18.5 °F 30.27 in WNW 8 mph 15 mph 41% 0.00 in 244 W/m2
10:49 40 °F 18.2 °F 30.27 in NW 7.5 mph 17 mph 41% 0.00 in 207 W/m2
10:54 39.9 °F 18.4 °F 30.27 in NW 4.4 mph 17 mph 41.5% 0.00 in 362 W/m2
10:59 40 °F 18.2 °F 30.27 in WNW 5.8 mph 17 mph 41% 0.00 in 404 W/m2
11:04 40.2 °F 18.4 °F 30.27 in NW 5.3 mph 17 mph 41.1% 0.00 in 353 W/m2
11:09 40.4 °F 18.4 °F 30.26 in NW 3 mph 14 mph 40.6% 0.00 in 179 W/m2
11:14 40.6 °F 18.7 °F 30.26 in WNW 3 mph 14 mph 40.9% 0.00 in 360 W/m2
11:19 40.9 °F 18.3 °F 30.26 in WNW 3.4 mph 17 mph 39.7% 0.00 in 413 W/m2
11:24 41.1 °F 18.1 °F 30.26 in WNW 5.3 mph 17 mph 39% 0.00 in 313 W/m2
11:29 41.3 °F 17.9 °F 30.26 in NW 7.4 mph 17 mph 38.5% 0.00 in 127 W/m2
11:34 41.5 °F 17.6 °F 30.26 in NW 3.3 mph 17 mph 37.7% 0.00 in 128 W/m2
11:39 41.7 °F 17.6 °F 30.26 in NW 3.9 mph 13 mph 37.3% 0.00 in 118 W/m2
11:44 42 °F 17.8 °F 30.25 in NW 2.4 mph 13 mph 37.2% 0.00 in 446 W/m2
11:49 42.4 °F 18.1 °F 30.25 in WNW 4.4 mph 15 mph 37.2% 0.00 in 425 W/m2
11:54 42.7 °F 16.6 °F 30.25 in WNW 8.8 mph 17 mph 34.5% 0.00 in 130 W/m2
11:59 42.6 °F 16.8 °F 30.25 in NW 5.7 mph 17 mph 35% 0.00 in 411 W/m2
12:00 42.6 °F 16.2 °F 30.25 in NNW 5 mph 17 mph 34% 0.00 in 373 W/m2
12:09 42.9 °F 16.2 °F 30.25 in NW 5.1 mph 13 mph 33.6% 0.00 in 269 W/m2
12:14 43.2 °F 15.8 °F 30.24 in NNW 4.4 mph 14 mph 32.6% 0.00 in 269 W/m2
12:19 43.4 °F 16.9 °F 30.24 in WNW 4.3 mph 14 mph 33.9% 0.00 in 65 W/m2
12:24 43.6 °F 15.6 °F 30.24 in WNW 7.9 mph 15 mph 31.8% 0.00 in 132 W/m2
12:29 43.5 °F 14.6 °F 30.24 in NW 9.1 mph 19 mph 30.6% 0.00 in 132 W/m2
12:34 43.4 °F 14.2 °F 30.23 in NW 6.7 mph 19 mph 30.2% 0.00 in 127 W/m2
12:39 43.5 °F 14.6 °F 30.23 in NW 5 mph 18 mph 30.6% 0.00 in 86 W/m2
12:44 43.7 °F 15 °F 30.23 in NW 5.4 mph 18 mph 31% 0.00 in 86 W/m2
12:49 43.7 °F 15.1 °F 30.23 in NNW 4.3 mph 18 mph 31% 0.00 in 236 W/m2
12:54 43.6 °F 14.8 °F 30.23 in NW 5.7 mph 18 mph 30.8% 0.00 in 329 W/m2
12:59 43.5 °F 14.2 °F 30.23 in WNW 4 mph 18 mph 30% 0.00 in 288 W/m2
13:03 43.6 °F 14.5 °F 30.23 in NW 2.4 mph 18 mph 30.4% 0.00 in 227 W/m2
13:09 43.7 °F 14.9 °F 30.23 in NNW 1.8 mph 9 mph 30.8% 0.00 in 332 W/m2
13:14 43.9 °F 15.2 °F 30.23 in NW 4.3 mph 11 mph 31% 0.00 in 302 W/m2
13:19 44 °F 14.1 °F 30.23 in NW 6.6 mph 15 mph 29.4% 0.00 in 88 W/m2
13:24 44 °F 14 °F 30.23 in NW 4.1 mph 15 mph 29.2% 0.00 in 39 W/m2
13:29 44 °F 13.9 °F 30.22 in NNW 2.8 mph 15 mph 29.1% 0.00 in 111 W/m2
13:34 44.1 °F 13.7 °F 30.22 in NNW 5.8 mph 15 mph 28.7% 0.00 in 197 W/m2
13:39 44.3 °F 13.7 °F 30.22 in NNW 3.4 mph 13 mph 28.5% 0.00 in 162 W/m2
13:44 44.6 °F 13.8 °F 30.21 in NNW 3.1 mph 13 mph 28.4% 0.00 in 199 W/m2
13:49 44.9 °F 13.9 °F 30.21 in NW 5.4 mph 13 mph 28.2% 0.00 in 373 W/m2
13:54 45.2 °F 14 °F 30.21 in NW 3.2 mph 14 mph 28% 0.00 in 376 W/m2
13:59 45.3 °F 14.1 °F 30.21 in WNW 5 mph 14 mph 28% 0.00 in 188 W/m2
14:04 45.2 °F 14.1 °F 30.22 in WNW 2.9 mph 14 mph 28% 0.00 in 188 W/m2
14:09 45.4 °F 14.2 °F 30.22 in NW 2.5 mph 10 mph 28% 0.00 in 183 W/m2
14:14 45.4 °F 13.7 °F 30.22 in NW 3.5 mph 10 mph 27.3% 0.00 in 77 W/m2
14:19 45.2 °F 12.5 °F 30.22 in NW 6.8 mph 17 mph 26.2% 0.00 in 58 W/m2
14:24 44.9 °F 12.2 °F 30.22 in NW 5.9 mph 17 mph 26.1% 0.00 in 63 W/m2
14:29 44.7 °F 12.5 °F 30.22 in NW 4.6 mph 17 mph 26.7% 0.00 in 128 W/m2
14:34 44.6 °F 12.7 °F 30.22 in NW 5.3 mph 17 mph 27% 0.00 in 26 W/m2
14:39 44.5 °F 12.6 °F 30.22 in NW 3.8 mph 15 mph 27% 0.00 in 26 W/m2
14:44 44.5 °F 13.3 °F 30.22 in NW 4.2 mph 15 mph 27.9% 0.00 in 25 W/m2
14:48 44.5 °F 13.2 °F 30.22 in NW 4.4 mph 15 mph 27.8% 0.00 in 25 W/m2
Hartford County Weather
Compliments of Weather Underground - 4 mb